Estación de Combarbala

Ultimos registro cada 15 minutos 85
Estación Fecha / Hora Temperatura Humedad Lluvia Velocidad Dirección Radiación Presion
85 Combarbala 30-08-2026 21:00 11,5 65,2 0 0 243 0,6 911,9
84 Combarbala 30-08-2026 20:45 11,7 63,2 0 0 237 0,6 912,2
83 Combarbala 30-08-2026 20:30 11,8 63,2 0 0 234 0,6 912,1
82 Combarbala 30-08-2026 20:15 12 66,3 0 0 234 0,6 911,9
81 Combarbala 30-08-2026 20:00 12,5 64,2 0 0 234 0,6 911,9
80 Combarbala 30-08-2026 19:45 12,5 63,6 0 0,5 227 0,6 911,9
79 Combarbala 30-08-2026 19:30 12,5 64 0 0,5 233 0,6 911,7
78 Combarbala 30-08-2026 19:15 12,5 64 0 0 248 0,6 911,5
77 Combarbala 30-08-2026 19:00 12,7 62,6 0 0,5 257 0,6 911,3
76 Combarbala 30-08-2026 18:45 13 58,4 0 1 274 0,6 911,1
75 Combarbala 30-08-2026 18:30 13,3 58,4 0 1,5 272 0,6 911,2
74 Combarbala 30-08-2026 18:15 13,6 58 0 1 264 9,4 911
73 Combarbala 30-08-2026 18:00 14 57,2 0 1 265 24,4 910,7
72 Combarbala 30-08-2026 17:45 14,5 54,8 0 0,5 309 39,4 910,4
71 Combarbala 30-08-2026 17:30 15,1 50,3 0 0,5 314 70,6 910,1
70 Combarbala 30-08-2026 17:15 15,5 50,1 0 0 306 98,1 910,2
69 Combarbala 30-08-2026 17:00 15,7 49,7 0 0,5 292 143,1 910,1
68 Combarbala 30-08-2026 16:45 16,1 46,7 0 0,5 302 183,1 910,1
67 Combarbala 30-08-2026 16:30 16,4 45,8 0 0,5 296 196,9 909,9
66 Combarbala 30-08-2026 16:15 16,4 43,5 0 1 306 210,6 909,9
65 Combarbala 30-08-2026 16:00 17,4 44,2 0 1 285 359,4 909,8
64 Combarbala 30-08-2026 15:45 17,4 42,5 0 0,5 309 328,1 909,9
63 Combarbala 30-08-2026 15:30 17 42,5 0 0,5 292 288,1 910
62 Combarbala 30-08-2026 15:15 17,7 41,4 0 1 282 303,1 910
61 Combarbala 30-08-2026 15:00 17,4 40,8 0 1 286 374,4 909,7
60 Combarbala 30-08-2026 14:45 18,2 39,6 0 1 305 411,9 909,8
59 Combarbala 30-08-2026 14:30 18,1 38,4 0 1 296 444,4 909,6
58 Combarbala 30-08-2026 14:15 18,1 39,4 0 1 271 526,9 909,8
57 Combarbala 30-08-2026 14:00 19,2 38,9 0 1 285 483,1 909,8
56 Combarbala 30-08-2026 13:45 18,7 39,1 0 1 288 586,9 910,1
55 Combarbala 30-08-2026 13:30 19,2 38,4 0 1 298 528,1 910,3
54 Combarbala 30-08-2026 13:15 19,4 40,9 0 1 312 916,9 910,5
53 Combarbala 30-08-2026 13:00 18,3 39,4 0 1,5 300 821,9 910,6
52 Combarbala 30-08-2026 12:45 17,5 42,3 0 1,5 292 794,4 910,9
51 Combarbala 30-08-2026 12:30 18 44 0 1,5 289 714,4 910,9
50 Combarbala 30-08-2026 12:15 17,7 45,7 0 1,5 321 706,9 911
49 Combarbala 30-08-2026 12:00 17,4 47 0 1,5 313 700,6 911,1
48 Combarbala 30-08-2026 11:45 17,3 49,7 0 1,5 306 684,4 911
47 Combarbala 30-08-2026 11:30 16,6 49,9 0 1,5 298 670,6 911,1
46 Combarbala 30-08-2026 11:15 16,5 50,4 0 1 320 650,6 911,2
45 Combarbala 30-08-2026 11:00 16,1 51,4 0 0,5 302 628,1 911,4
44 Combarbala 30-08-2026 10:45 16,2 54,4 0 0,5 291 601,9 911,4
43 Combarbala 30-08-2026 10:30 15,8 54,9 0 0,5 316 570,6 911,4
42 Combarbala 30-08-2026 10:15 15,3 56,3 0 0,5 295 538,1 911,3
41 Combarbala 30-08-2026 10:00 14 59,9 0 0 253 499,4 911,2
40 Combarbala 30-08-2026 09:45 13,7 62,5 0 0 131 459,4 911,2
39 Combarbala 30-08-2026 09:30 14 58,8 0 0 100 419,4 910,9
38 Combarbala 30-08-2026 09:15 13,6 61,9 0 0 110 374,4 910,9
37 Combarbala 30-08-2026 09:00 12,9 65,3 0 0 220 329,4 910,9
36 Combarbala 30-08-2026 08:45 13 63,1 0 0 220 281,9 910,8
35 Combarbala 30-08-2026 08:30 11,9 67,8 0 0 220 233,1 910,7
34 Combarbala 30-08-2026 08:15 11,6 68,5 0 0 220 185,6 910,5
33 Combarbala 30-08-2026 08:00 10,3 73,1 0 0 220 139,4 910,4
32 Combarbala 30-08-2026 07:45 8,2 79,5 0 0 220 89,4 910,2
31 Combarbala 30-08-2026 07:30 6,8 81,9 0 0 220 9,4 910,2
30 Combarbala 30-08-2026 07:15 5,9 85,9 0 0 226 5,6 910,1
29 Combarbala 30-08-2026 07:00 5,9 84,6 0 0 226 1,9 909,9
28 Combarbala 30-08-2026 06:45 6,1 83 0 0 226 0,6 909,7
27 Combarbala 30-08-2026 06:30 6,7 80,7 0 0 226 0,6 909,5
26 Combarbala 30-08-2026 06:15 7,1 79,6 0 0,5 226 0,6 909,6
25 Combarbala 30-08-2026 06:00 7,2 79,2 0 0 226 0,6 909,3
24 Combarbala 30-08-2026 05:45 7,6 78,4 0 0 226 0,6 909,3
23 Combarbala 30-08-2026 05:30 7,3 79,7 0 0 226 0,6 909
22 Combarbala 30-08-2026 05:15 7,3 79,2 0 0 226 0,6 909,1
21 Combarbala 30-08-2026 05:00 7,2 79,9 0 0 226 0,6 909,1
20 Combarbala 30-08-2026 04:45 6,9 79,4 0 0 226 0,6 909,2
19 Combarbala 30-08-2026 04:30 7,5 77,7 0 0 226 0,6 909
18 Combarbala 30-08-2026 04:15 7,3 79,7 0 0 226 0,6 909,1
17 Combarbala 30-08-2026 04:00 7,4 78,3 0 0 226 0,6 909
16 Combarbala 30-08-2026 03:45 7,4 77,5 0 0 226 0,6 909
15 Combarbala 30-08-2026 03:30 8 76,2 0 0 226 0,6 909,1
14 Combarbala 30-08-2026 03:15 7,5 78,3 0 0 226 0,6 909,2
13 Combarbala 30-08-2026 03:00 7,9 77,1 0 0 226 0,6 909,3
12 Combarbala 30-08-2026 02:45 7,7 77,1 0 0 226 0,6 909,2
11 Combarbala 30-08-2026 02:30 7,6 77,9 0 0 226 0,6 909,3
10 Combarbala 30-08-2026 02:15 7,8 76,8 0 0 226 0,6 909,4
9 Combarbala 30-08-2026 02:00 8,2 75,3 0 0 226 0,6 909,3
8 Combarbala 30-08-2026 01:45 7,8 76,3 0 0 226 0,6 909,5
7 Combarbala 30-08-2026 01:30 8,2 74,1 0 0 226 0,6 909,4
6 Combarbala 30-08-2026 01:15 8,5 72,8 0 0 226 0,6 909,4
5 Combarbala 30-08-2026 01:00 8,7 71,9 0 0 226 0,6 909,5
4 Combarbala 30-08-2026 00:45 8,3 74,1 0 0 226 0,6 909,5
3 Combarbala 30-08-2026 00:30 8,4 74,3 0 0 226 0,6 909,4
2 Combarbala 30-08-2026 00:15 8,3 74,4 0 0 226 0,6 909,5
1 Combarbala 30-08-2026 00:00 8,6 73,7 0 0 226 0,6 909,4